Time;durP1;ratioP1;P1;durP2;ratioP2;P2;SDS_P1;SDS_P2;PMS_P1;PMS_P2;Temp;Humidity;BMP_temperature;BMP_pressure;BME280_temperature;BME280_humidity;BME280_pressure;Samples;Min_cycle;Max_cycle;Signal;HPM_P1;HPM_P2
2020/12/30 00:00:29;;;;;;;1.63;1.50;;;2.30;99.90;;;;;;5020932;28;20753;-79
2020/12/30 00:02:56;;;;;;;1.70;1.60;;;2.30;99.90;;;;;;5021517;28;20228;-80
2020/12/30 00:05:23;;;;;;;2.03;1.70;;;2.30;99.90;;;;;;5023541;28;20236;-80
2020/12/30 00:07:50;;;;;;;2.13;1.63;;;2.30;99.90;;;;;;5021344;28;20223;-80
2020/12/30 00:10:19;;;;;;;2.10;1.70;;;2.20;99.90;;;;;;5021651;28;20205;-81
2020/12/30 00:12:46;;;;;;;1.77;1.67;;;2.30;99.90;;;;;;5022031;28;20563;-79
2020/12/30 00:15:14;;;;;;;2.10;1.60;;;2.30;99.90;;;;;;5022251;28;20232;-80
2020/12/30 00:17:42;;;;;;;2.10;1.90;;;2.30;99.90;;;;;;5022337;28;20230;-79
2020/12/30 00:20:13;;;;;;;3.33;1.90;;;2.30;99.90;;;;;;5022627;28;20220;-79
2020/12/30 00:22:42;;;;;;;3.23;1.80;;;2.30;99.90;;;;;;5022612;28;20249;-80
2020/12/30 00:25:09;;;;;;;2.20;1.80;;;2.30;99.90;;;;;;5022120;28;20196;-80
2020/12/30 00:27:39;;;;;;;2.80;1.87;;;2.30;99.90;;;;;;5022783;28;20244;-80
2020/12/30 00:30:12;;;;;;;2.53;2.03;;;2.30;99.90;;;;;;5024125;28;20205;-79
2020/12/30 00:32:40;;;;;;;3.83;1.60;;;2.30;99.90;;;;;;5023935;28;20186;-81
2020/12/30 00:35:08;;;;;;;2.07;1.60;;;2.30;99.90;;;;;;5023959;28;20216;-79
2020/12/30 00:37:36;;;;;;;2.73;1.90;;;2.40;99.90;;;;;;5024869;28;20535;-81
2020/12/30 00:40:04;;;;;;;4.13;1.73;;;2.30;99.90;;;;;;5023087;28;20228;-81
2020/12/30 00:42:32;;;;;;;3.07;1.77;;;2.40;99.90;;;;;;5025074;28;20196;-80
2020/12/30 00:45:00;;;;;;;3.33;1.80;;;2.40;99.90;;;;;;5024132;28;20259;-80
2020/12/30 00:47:27;;;;;;;1.87;1.60;;;2.40;99.90;;;;;;5025170;28;20209;-79
2020/12/30 00:49:54;;;;;;;2.73;1.80;;;2.40;99.90;;;;;;5017516;28;20205;-79
2020/12/30 00:52:21;;;;;;;2.63;1.83;;;2.40;99.90;;;;;;5014294;28;20212;-79
2020/12/30 00:54:48;;;;;;;3.20;2.13;;;2.40;99.90;;;;;;5014579;28;20205;-79
2020/12/30 00:57:15;;;;;;;6.60;2.07;;;2.40;99.90;;;;;;5015496;28;20272;-80
2020/12/30 00:59:42;;;;;;;2.63;2.10;;;2.50;99.90;;;;;;5015818;28;20640;-80
2020/12/30 01:02:09;;;;;;;2.73;1.77;;;2.50;99.90;;;;;;5016669;28;20737;-80
2020/12/30 01:04:37;;;;;;;2.73;1.80;;;2.50;99.90;;;;;;5019063;28;20227;-79
2020/12/30 01:07:03;;;;;;;1.87;1.50;;;2.50;99.90;;;;;;5016221;28;20720;-80
2020/12/30 01:09:30;;;;;;;1.53;1.43;;;2.50;99.90;;;;;;5016402;28;20211;-80
2020/12/30 01:12:15;;;;;;;1.77;1.40;;;2.40;99.90;;;;;;5016852;28;20216;-79
2020/12/30 01:14:42;;;;;;;1.93;1.70;;;2.40;99.90;;;;;;5017125;28;20299;-80
2020/12/30 01:17:09;;;;;;;1.60;1.50;;;2.30;99.90;;;;;;5017276;28;20213;-80
2020/12/30 01:19:36;;;;;;;1.90;1.30;;;2.30;99.90;;;;;;5016524;28;20225;-79
2020/12/30 01:22:04;;;;;;;1.97;1.60;;;2.20;99.90;;;;;;5017707;28;20201;-80
2020/12/30 01:24:30;;;;;;;2.27;1.50;;;2.20;99.90;;;;;;5016990;28;20538;-79
2020/12/30 01:26:57;;;;;;;4.87;1.60;;;2.10;99.90;;;;;;5018044;28;20235;-79
2020/12/30 01:29:25;;;;;;;1.97;1.47;;;2.10;99.90;;;;;;5016686;28;20236;-80
2020/12/30 01:31:52;;;;;;;2.03;1.50;;;2.00;99.90;;;;;;5018872;28;20205;-80
2020/12/30 01:34:19;;;;;;;3.70;1.37;;;2.00;99.90;;;;;;5019861;28;20592;-80
2020/12/30 01:36:52;;;;;;;1.43;1.00;;;1.90;99.90;;;;;;5018030;28;20196;-79
2020/12/30 01:39:19;;;;;;;1.53;1.23;;;1.90;99.90;;;;;;5019277;28;20237;-79
2020/12/30 01:41:47;;;;;;;3.97;1.77;;;1.80;99.90;;;;;;5020168;28;20205;-80
2020/12/30 01:44:14;;;;;;;1.67;1.20;;;1.80;99.90;;;;;;5017778;28;20251;-80
2020/12/30 01:46:47;;;;;;;2.37;1.33;;;1.70;99.90;;;;;;5020408;28;20193;-80
2020/12/30 01:49:17;;;;;;;1.80;1.23;;;1.70;99.90;;;;;;5020464;28;20258;-80
2020/12/30 01:51:45;;;;;;;1.53;1.30;;;1.70;99.90;;;;;;5018723;28;20193;-80
2020/12/30 01:54:14;;;;;;;2.20;1.50;;;1.70;99.90;;;;;;5019337;28;20208;-80
2020/12/30 01:56:42;;;;;;;1.80;1.33;;;1.60;99.90;;;;;;5019718;28;20197;-79
2020/12/30 01:59:12;;;;;;;1.27;1.10;;;1.70;99.90;;;;;;5018481;28;20287;-79
2020/12/30 02:01:42;;;;;;;2.67;1.00;;;1.60;99.90;;;;;;5019549;28;20260;-79
2020/12/30 02:04:11;;;;;;;2.00;1.20;;;1.50;99.90;;;;;;5019772;28;20231;-80
2020/12/30 02:06:39;;;;;;;1.40;1.10;;;1.50;99.90;;;;;;5019662;28;20686;-80
2020/12/30 02:09:07;;;;;;;2.53;1.30;;;1.50;99.90;;;;;;5020693;28;20193;-80
2020/12/30 02:11:34;;;;;;;1.50;1.20;;;1.40;99.90;;;;;;5020742;28;20222;-80
2020/12/30 02:14:04;;;;;;;1.47;1.03;;;1.40;99.90;;;;;;5020325;28;20205;-80
2020/12/30 02:16:31;;;;;;;3.57;1.20;;;1.40;99.90;;;;;;5022934;28;20216;-80
2020/12/30 02:18:59;;;;;;;4.10;1.30;;;1.40;99.90;;;;;;5021826;28;20360;-80
2020/12/30 02:21:26;;;;;;;1.30;1.20;;;1.40;99.90;;;;;;5017400;28;20261;-79
2020/12/30 02:23:55;;;;;;;1.90;1.00;;;1.30;99.90;;;;;;5015653;28;20583;-80
2020/12/30 02:26:22;;;;;;;1.80;1.20;;;1.30;99.90;;;;;;5016434;28;20608;-79
2020/12/30 02:28:49;;;;;;;1.10;0.93;;;1.30;99.90;;;;;;5015832;28;20238;-79
2020/12/30 02:31:16;;;;;;;2.27;1.00;;;1.20;99.90;;;;;;5015857;28;20201;-80
2020/12/30 02:33:43;;;;;;;2.27;0.97;;;1.20;99.90;;;;;;5016247;28;20205;-80
2020/12/30 02:36:10;;;;;;;2.93;1.10;;;1.20;99.90;;;;;;5015320;28;20200;-79
2020/12/30 02:38:38;;;;;;;1.27;1.00;;;1.20;99.90;;;;;;5015786;28;20787;-80
2020/12/30 02:41:05;;;;;;;1.17;0.80;;;1.10;99.90;;;;;;5015649;28;20625;-79
2020/12/30 02:43:32;;;;;;;2.23;1.70;;;1.10;99.90;;;;;;5015595;28;20651;-80
2020/12/30 02:46:00;;;;;;;1.60;1.43;;;1.10;99.90;;;;;;5016835;28;20589;-79
2020/12/30 02:48:27;;;;;;;2.30;1.20;;;1.10;99.90;;;;;;5016966;28;20229;-79
2020/12/30 02:50:54;;;;;;;1.20;1.00;;;1.00;99.90;;;;;;5016603;28;20200;-79
2020/12/30 02:53:21;;;;;;;2.40;1.30;;;1.00;99.90;;;;;;5016866;28;20228;-80
2020/12/30 02:55:47;;;;;;;2.93;1.50;;;1.00;99.90;;;;;;5016095;28;20211;-80
2020/12/30 02:58:14;;;;;;;1.80;1.43;;;1.00;99.90;;;;;;5012187;28;20717;-80
2020/12/30 03:00:41;;;;;;;2.23;1.40;;;1.00;99.90;;;;;;5008059;28;20630;-79
2020/12/30 03:03:07;;;;;;;2.67;1.50;;;1.00;99.90;;;;;;5008836;28;20316;-79
2020/12/30 03:05:35;;;;;;;2.47;1.13;;;1.00;99.90;;;;;;5011669;28;20205;-79
2020/12/30 03:08:01;;;;;;;5.23;1.80;;;1.00;99.90;;;;;;5011288;28;20247;-79
2020/12/30 03:10:28;;;;;;;2.80;1.23;;;1.00;99.90;;;;;;5011868;28;20236;-79
2020/12/30 03:12:54;;;;;;;3.23;1.63;;;1.00;99.90;;;;;;5010963;28;20624;-79
2020/12/30 03:15:21;;;;;;;2.10;1.00;;;1.00;99.90;;;;;;5010978;28;20317;-79
2020/12/30 03:17:48;;;;;;;3.00;1.73;;;0.90;99.90;;;;;;5010814;28;20240;-79
2020/12/30 03:20:15;;;;;;;2.07;1.47;;;0.90;99.90;;;;;;5017629;28;20304;-79
2020/12/30 03:22:42;;;;;;;1.53;1.43;;;0.90;99.90;;;;;;5022433;28;20193;-80
2020/12/30 03:25:09;;;;;;;1.57;1.30;;;0.90;99.90;;;;;;5021338;28;20205;-79
2020/12/30 03:27:36;;;;;;;2.10;1.87;;;0.90;99.90;;;;;;5022142;28;20236;-79
2020/12/30 03:30:04;;;;;;;2.83;1.57;;;0.90;99.90;;;;;;5021758;28;20255;-79
2020/12/30 03:32:30;;;;;;;1.67;1.53;;;0.90;99.90;;;;;;5022381;28;20204;-80
2020/12/30 03:34:58;;;;;;;2.60;2.03;;;0.80;99.90;;;;;;5017449;28;20282;-78
2020/12/30 03:37:25;;;;;;;3.83;2.30;;;0.80;99.90;;;;;;5013980;28;20201;-78
2020/12/30 03:39:52;;;;;;;5.50;2.70;;;0.80;99.90;;;;;;5013874;28;20582;-77
2020/12/30 03:42:23;;;;;;;3.90;2.13;;;0.80;99.90;;;;;;5016401;28;20233;-79
2020/12/30 03:44:50;;;;;;;3.87;2.67;;;0.80;99.90;;;;;;5019873;28;20212;-78
2020/12/30 03:47:18;;;;;;;4.60;3.27;;;0.80;99.90;;;;;;5018099;28;20259;-79
2020/12/30 03:49:45;;;;;;;4.03;2.97;;;0.70;99.90;;;;;;5018136;28;20666;-79
2020/12/30 03:52:12;;;;;;;3.33;2.70;;;0.70;99.90;;;;;;5019146;28;20213;-79
2020/12/30 03:54:40;;;;;;;3.80;2.50;;;0.70;99.90;;;;;;5016626;28;20205;-78
2020/12/30 03:57:06;;;;;;;3.63;2.67;;;0.70;99.90;;;;;;5012966;28;20209;-78
2020/12/30 03:59:34;;;;;;;3.33;2.20;;;0.70;99.90;;;;;;5012038;28;20224;-78
2020/12/30 04:02:01;;;;;;;3.63;2.73;;;0.70;99.90;;;;;;5012905;28;20646;-79
2020/12/30 04:04:28;;;;;;;4.00;3.03;;;0.70;99.90;;;;;;5012501;28;20240;-79
2020/12/30 04:06:55;;;;;;;3.87;3.03;;;0.70;99.90;;;;;;5014114;28;20275;-77
2020/12/30 04:09:21;;;;;;;6.60;3.13;;;0.70;99.90;;;;;;5012204;28;20247;-79
2020/12/30 04:11:49;;;;;;;5.93;3.20;;;0.70;99.90;;;;;;5011801;28;20217;-77
2020/12/30 04:14:15;;;;;;;15.27;10.30;;;0.70;99.90;;;;;;5012589;28;20294;-78
2020/12/30 04:16:42;;;;;;;8.13;6.17;;;0.70;99.90;;;;;;5012636;28;20550;-79
2020/12/30 04:19:08;;;;;;;5.83;3.60;;;0.70;99.90;;;;;;5011951;28;20635;-79
2020/12/30 04:21:37;;;;;;;4.80;3.67;;;0.80;99.90;;;;;;5012583;28;20243;-77
2020/12/30 04:24:05;;;;;;;6.97;4.37;;;0.80;99.90;;;;;;5012396;28;20197;-79
2020/12/30 04:26:33;;;;;;;5.33;3.93;;;0.80;99.90;;;;;;5013910;28;20197;-78
2020/12/30 04:29:04;;;;;;;6.77;5.17;;;0.80;99.90;;;;;;5012395;28;20232;-78
2020/12/30 04:31:30;;;;;;;7.50;5.20;;;0.80;99.90;;;;;;5014176;28;20271;-78
2020/12/30 04:33:58;;;;;;;8.77;6.17;;;0.80;99.90;;;;;;5013980;28;20209;-79
2020/12/30 04:36:25;;;;;;;7.97;6.50;;;0.80;99.90;;;;;;5013137;28;20201;-79
2020/12/30 04:38:52;;;;;;;7.10;5.43;;;0.90;99.90;;;;;;5013809;28;20201;-79
2020/12/30 04:41:27;;;;;;;9.70;6.13;;;0.90;99.90;;;;;;5012750;28;20201;-78
2020/12/30 04:43:56;;;;;;;10.73;6.07;;;0.90;99.90;;;;;;5012804;28;20185;-79
2020/12/30 04:46:24;;;;;;;7.83;5.57;;;0.90;99.90;;;;;;5014031;28;20251;-78
2020/12/30 04:48:52;;;;;;;8.13;5.13;;;0.90;99.90;;;;;;5012416;28;20618;-78
2020/12/30 04:51:20;;;;;;;9.83;5.67;;;0.90;99.90;;;;;;5012161;28;20197;-79
2020/12/30 04:53:50;;;;;;;7.20;5.07;;;1.00;99.90;;;;;;5012884;28;20201;-78
2020/12/30 04:56:27;;;;;;;8.30;5.47;;;1.00;99.90;;;;;;5014180;28;20204;-79
2020/12/30 04:58:54;;;;;;;7.27;5.50;;;1.00;99.90;;;;;;5012846;28;20311;-79
2020/12/30 05:01:27;;;;;;;10.23;5.17;;;1.00;99.90;;;;;;5013013;28;20256;-79
2020/12/30 05:03:54;;;;;;;6.67;5.23;;;1.00;99.90;;;;;;5012152;28;20298;-79
2020/12/30 05:06:23;;;;;;;7.60;5.30;;;1.00;99.90;;;;;;5012166;28;20232;-79
2020/12/30 05:08:53;;;;;;;6.57;5.20;;;1.00;99.90;;;;;;5014895;28;20205;-79
2020/12/30 05:11:21;;;;;;;8.80;5.50;;;1.00;99.90;;;;;;5012069;28;20259;-79
2020/12/30 05:13:48;;;;;;;7.03;5.40;;;1.10;99.90;;;;;;5013679;28;20336;-79
2020/12/30 05:16:15;;;;;;;8.27;5.67;;;1.10;99.90;;;;;;5014245;28;20205;-79
2020/12/30 05:18:42;;;;;;;6.57;5.07;;;1.10;99.90;;;;;;5013256;28;20267;-79
2020/12/30 05:21:09;;;;;;;6.87;4.60;;;1.10;99.90;;;;;;5011449;28;20203;-79
2020/12/30 05:23:36;;;;;;;8.20;5.90;;;1.00;99.90;;;;;;5012875;28;20252;-79
2020/12/30 05:26:04;;;;;;;7.90;5.27;;;1.00;99.90;;;;;;5011047;28;20259;-78
2020/12/30 05:28:32;;;;;;;6.37;4.60;;;1.00;99.90;;;;;;5011060;28;20733;-78
2020/12/30 05:31:00;;;;;;;5.90;4.60;;;1.00;99.90;;;;;;5010506;28;20279;-79
2020/12/30 05:33:30;;;;;;;6.23;4.37;;;0.90;99.90;;;;;;5011568;28;20224;-79
2020/12/30 05:36:00;;;;;;;6.13;4.23;;;1.00;99.90;;;;;;5012445;28;20193;-79
2020/12/30 05:38:28;;;;;;;6.97;4.90;;;0.90;99.90;;;;;;5012916;28;20619;-79
2020/12/30 05:40:56;;;;;;;6.50;5.10;;;0.90;99.90;;;;;;5012028;28;20221;-78
2020/12/30 05:43:23;;;;;;;10.97;5.40;;;0.90;99.90;;;;;;5013183;28;20789;-79
2020/12/30 05:45:51;;;;;;;6.93;4.83;;;0.80;99.90;;;;;;5012515;28;20205;-78
2020/12/30 05:48:22;;;;;;;8.43;5.20;;;0.80;99.90;;;;;;5012380;28;20185;-79
2020/12/30 05:50:54;;;;;;;6.80;4.97;;;0.70;99.90;;;;;;5012375;28;20239;-79
2020/12/30 05:53:22;;;;;;;6.67;5.53;;;0.70;99.90;;;;;;5012985;28;20235;-78
2020/12/30 05:55:51;;;;;;;8.90;6.33;;;0.60;99.90;;;;;;5012395;28;20650;-79
2020/12/30 05:58:18;;;;;;;9.50;6.73;;;0.60;99.90;;;;;;5013013;28;20255;-78
2020/12/30 06:00:46;;;;;;;9.17;6.90;;;0.50;99.90;;;;;;5012644;28;20232;-77
2020/12/30 06:03:15;;;;;;;12.27;7.70;;;0.50;99.90;;;;;;5012515;28;20291;-78
2020/12/30 06:05:42;;;;;;;10.40;7.20;;;0.50;99.90;;;;;;5013075;28;20201;-78
2020/12/30 06:08:09;;;;;;;9.93;7.07;;;0.50;99.90;;;;;;5012990;28;20399;-78
2020/12/30 06:10:42;;;;;;;12.30;8.67;;;0.50;99.90;;;;;;5012817;28;20197;-79
2020/12/30 06:13:12;;;;;;;11.37;8.23;;;0.40;99.90;;;;;;5012921;28;20189;-78
2020/12/30 06:15:47;;;;;;;13.50;8.43;;;0.40;99.90;;;;;;5012899;28;20228;-79
2020/12/30 06:18:21;;;;;;;11.37;8.33;;;0.40;99.90;;;;;;5012418;28;20639;-79
2020/12/30 06:20:52;;;;;;;14.17;9.97;;;0.30;99.90;;;;;;5013540;28;20513;-79
2020/12/30 06:23:19;;;;;;;15.80;7.80;;;0.30;99.90;;;;;;5013524;28;20284;-78
2020/12/30 06:25:47;;;;;;;17.43;9.77;;;0.30;99.90;;;;;;5012755;28;20602;-79
2020/12/30 06:28:18;;;;;;;13.30;9.43;;;0.20;99.90;;;;;;5013778;28;20231;-78
2020/12/30 06:30:47;;;;;;;12.50;8.97;;;0.30;99.90;;;;;;5013624;28;20192;-79
2020/12/30 06:33:16;;;;;;;12.90;8.87;;;0.20;99.90;;;;;;5013780;28;20622;-78
2020/12/30 06:35:44;;;;;;;13.73;9.60;;;0.20;99.90;;;;;;5014037;28;20212;-79
2020/12/30 06:38:22;;;;;;;13.47;8.70;;;0.20;99.90;;;;;;5017416;28;20235;-79
2020/12/30 06:41:02;;;;;;;15.97;10.07;;;0.20;99.90;;;;;;5019470;28;20225;-79
2020/12/30 06:43:50;;;;;;;16.00;10.90;;;0.20;99.90;;;;;;5014053;28;20185;-78
2020/12/30 06:46:34;;;;;;;16.00;10.67;;;0.20;99.90;;;;;;5012673;28;20200;-78
2020/12/30 06:49:04;;;;;;;14.07;10.73;;;0.20;99.90;;;;;;5014764;28;20541;-78
2020/12/30 06:51:38;;;;;;;18.13;11.30;;;0.20;99.90;;;;;;5016538;28;20205;-79
2020/12/30 06:54:05;;;;;;;19.90;11.63;;;0.20;99.90;;;;;;5018413;28;20364;-79
2020/12/30 06:56:40;;;;;;;19.13;12.40;;;0.30;99.90;;;;;;5018616;28;20255;-78
2020/12/30 06:59:08;;;;;;;19.67;12.60;;;0.30;99.90;;;;;;5014185;28;20221;-77
2020/12/30 07:01:56;;;;;;;24.23;13.03;;;0.30;99.90;;;;;;5011911;28;20209;-77
2020/12/30 07:04:29;;;;;;;18.27;12.33;;;0.40;99.90;;;;;;5012914;28;20189;-77
2020/12/30 07:06:57;;;;;;;16.23;10.73;;;0.30;99.90;;;;;;5011750;28;20197;-78
2020/12/30 07:09:34;;;;;;;19.27;10.87;;;0.40;99.90;;;;;;5011645;28;20204;-78
2020/12/30 07:12:03;;;;;;;19.30;11.13;;;0.40;99.90;;;;;;5013253;28;20243;-77
2020/12/30 07:14:31;;;;;;;22.77;12.23;;;0.40;99.90;;;;;;5011598;28;20263;-77
2020/12/30 07:17:05;;;;;;;19.40;11.93;;;0.40;99.90;;;;;;5010889;28;20279;-77
2020/12/30 07:19:34;;;;;;;19.93;11.40;;;0.40;99.90;;;;;;5012623;28;20764;-77
2020/12/30 07:22:07;;;;;;;18.90;12.87;;;0.40;99.90;;;;;;5012435;28;20209;-77
2020/12/30 07:24:51;;;;;;;17.93;12.13;;;0.40;99.90;;;;;;5014537;28;20580;-79
2020/12/30 07:27:18;;;;;;;18.97;13.07;;;0.50;99.90;;;;;;5013719;28;20481;-79
2020/12/30 07:29:46;;;;;;;19.90;13.50;;;0.50;99.90;;;;;;5013928;28;20267;-78
2020/12/30 07:32:15;;;;;;;22.37;13.67;;;0.50;99.90;;;;;;5013884;28;20209;-78
2020/12/30 07:34:49;;;;;;;20.07;12.23;;;0.60;99.90;;;;;;5014828;28;20267;-78
2020/12/30 07:37:17;;;;;;;18.27;12.37;;;0.60;99.90;;;;;;5013253;28;20185;-79
2020/12/30 07:39:46;;;;;;;24.77;13.30;;;0.70;99.90;;;;;;5013620;28;20764;-79
2020/12/30 07:42:19;;;;;;;20.33;12.77;;;0.70;99.90;;;;;;5013628;28;20705;-78
2020/12/30 07:44:51;;;;;;;17.87;13.10;;;0.80;99.90;;;;;;5013917;28;20193;-79
2020/12/30 07:47:20;;;;;;;26.50;14.70;;;0.80;99.90;;;;;;5013586;28;20633;-79
2020/12/30 07:49:47;;;;;;;21.07;13.37;;;0.90;99.90;;;;;;5015034;28;20209;-79
2020/12/30 07:52:15;;;;;;;24.13;15.27;;;0.90;99.90;;;;;;5014465;28;20204;-79
2020/12/30 07:54:42;;;;;;;23.23;14.37;;;0.90;99.90;;;;;;5016245;28;20733;-79
2020/12/30 07:57:11;;;;;;;21.60;14.17;;;1.00;99.90;;;;;;5014809;28;20240;-78
2020/12/30 07:59:48;;;;;;;21.00;14.03;;;1.00;99.90;;;;;;5014614;28;20645;-79
2020/12/30 08:02:16;;;;;;;19.43;13.53;;;1.00;99.90;;;;;;5015810;28;20294;-79
2020/12/30 08:04:45;;;;;;;20.20;13.27;;;1.10;99.90;;;;;;5015114;28;20204;-79
2020/12/30 08:07:14;;;;;;;21.70;13.53;;;1.10;99.90;;;;;;5014990;28;20660;-78
2020/12/30 08:09:45;;;;;;;21.50;13.83;;;1.20;99.90;;;;;;5014397;28;20315;-79
2020/12/30 08:12:13;;;;;;;20.47;13.70;;;1.20;99.90;;;;;;5015453;28;20197;-79
2020/12/30 08:14:41;;;;;;;22.70;13.70;;;1.20;99.90;;;;;;5014929;28;20295;-79
2020/12/30 08:17:11;;;;;;;21.63;13.10;;;1.30;99.90;;;;;;5015748;28;20233;-79
2020/12/30 08:19:43;;;;;;;23.33;14.03;;;1.30;99.90;;;;;;5014617;28;20228;-79
2020/12/30 08:22:36;;;;;;;18.40;12.87;;;1.30;99.90;;;;;;5016993;28;20181;-79
2020/12/30 08:25:05;;;;;;;21.77;13.30;;;1.40;99.90;;;;;;5012847;28;20204;-79
2020/12/30 08:27:31;;;;;;;22.37;13.20;;;1.50;99.90;;;;;;5029258;28;20192;-79
2020/12/30 08:30:01;;;;;;;19.47;13.77;;;1.50;99.90;;;;;;5033913;28;20200;-79
2020/12/30 08:32:34;;;;;;;21.43;14.13;;;1.60;99.90;;;;;;5032506;28;20203;-78
2020/12/30 08:35:11;;;;;;;19.20;13.03;;;1.70;99.90;;;;;;5017731;28;20287;-78
2020/12/30 08:38:17;;;;;;;18.53;12.53;;;1.80;99.90;;;;;;5012933;28;20247;-78
2020/12/30 08:40:50;;;;;;;17.30;11.50;;;1.90;99.90;;;;;;5008593;28;20229;-78
2020/12/30 08:43:43;;;;;;;20.03;12.73;;;2.10;99.90;;;;;;5013553;28;20208;-79
2020/12/30 08:46:18;;;;;;;20.33;12.83;;;2.30;99.90;;;;;;5014185;28;20553;-79
2020/12/30 08:48:49;;;;;;;20.50;13.20;;;2.30;99.90;;;;;;5014737;28;20189;-78
2020/12/30 08:51:28;;;;;;;18.83;12.93;;;2.50;99.90;;;;;;5015904;28;20193;-79
2020/12/30 08:53:55;;;;;;;17.23;12.53;;;2.60;99.90;;;;;;5013992;28;20205;-78
2020/12/30 08:56:22;;;;;;;17.70;10.97;;;2.70;99.90;;;;;;5014387;28;20626;-78
2020/12/30 08:58:57;;;;;;;16.77;11.10;;;2.70;99.90;;;;;;5015988;28;20247;-78
2020/12/30 09:01:26;;;;;;;27.57;17.83;;;2.80;99.90;;;;;;5013375;28;20251;-79
2020/12/30 09:03:53;;;;;;;23.40;14.43;;;2.90;99.90;;;;;;5023412;28;20232;-79
2020/12/30 09:06:30;;;;;;;23.33;17.07;;;3.00;99.90;;;;;;5034104;28;20200;-78
2020/12/30 09:09:12;;;;;;;20.93;15.90;;;3.10;99.90;;;;;;5035821;28;20200;-78
2020/12/30 09:11:45;;;;;;;20.67;14.37;;;3.20;99.90;;;;;;5034064;28;20238;-78
2020/12/30 09:14:21;;;;;;;17.10;11.30;;;3.30;99.90;;;;;;5035992;28;20195;-79
2020/12/30 09:16:55;;;;;;;14.43;10.40;;;3.40;99.90;;;;;;5033937;28;20254;-79
2020/12/30 09:19:24;;;;;;;14.67;9.20;;;3.60;99.90;;;;;;5035467;28;20184;-78
2020/12/30 09:21:50;;;;;;;11.53;8.77;;;3.70;99.90;;;;;;5034560;28;20765;-78
2020/12/30 09:24:18;;;;;;;8.57;6.97;;;3.80;99.90;;;;;;5034480;28;20743;-79
2020/12/30 09:26:44;;;;;;;10.57;6.53;;;3.90;99.90;;;;;;5035848;28;20204;-79
2020/12/30 09:29:21;;;;;;;9.83;6.20;;;4.00;99.90;;;;;;5034276;28;20200;-79
2020/12/30 09:32:03;;;;;;;7.67;5.00;;;4.10;99.90;;;;;;5064991;28;20567;-77
2020/12/30 09:34:30;;;;;;;5.33;3.37;;;4.20;99.90;;;;;;5065400;28;20277;-77
2020/12/30 09:36:58;;;;;;;4.90;2.77;;;4.30;99.90;;;;;;5063373;28;20199;-77
2020/12/30 09:39:27;;;;;;;2.70;2.20;;;4.30;99.90;;;;;;5063693;28;20218;-77
2020/12/30 09:42:04;;;;;;;3.50;2.23;;;4.40;99.90;;;;;;5063667;28;20219;-77
2020/12/30 09:44:32;;;;;;;4.37;1.90;;;4.40;99.90;;;;;;5064631;28;20529;-77
2020/12/30 09:46:59;;;;;;;3.03;2.07;;;4.50;99.90;;;;;;5065183;28;20198;-77
2020/12/30 09:49:27;;;;;;;4.50;2.00;;;4.60;99.90;;;;;;5064149;28;20203;-77
2020/12/30 09:51:56;;;;;;;3.63;2.10;;;4.60;99.90;;;;;;5063233;28;20206;-77
2020/12/30 09:54:25;;;;;;;1.87;1.43;;;4.60;99.90;;;;;;5063565;28;20234;-77
2020/12/30 09:56:52;;;;;;;3.70;1.90;;;4.60;99.90;;;;;;5063355;28;20648;-77
2020/12/30 09:59:22;;;;;;;2.93;2.10;;;4.60;99.90;;;;;;5062406;28;20219;-77
2020/12/30 10:01:49;;;;;;;4.93;2.10;;;4.60;99.90;;;;;;5064974;28;20229;-77
2020/12/30 10:04:16;;;;;;;3.67;1.60;;;4.70;99.90;;;;;;5063122;28;20644;-77
2020/12/30 10:06:46;;;;;;;3.07;2.20;;;4.70;99.90;;;;;;5062883;28;20206;-77
2020/12/30 10:09:14;;;;;;;3.30;1.57;;;4.60;99.90;;;;;;5063122;28;20729;-77
2020/12/30 10:11:41;;;;;;;2.83;1.77;;;4.60;99.90;;;;;;5063895;28;20667;-77
2020/12/30 10:14:08;;;;;;;3.47;1.67;;;4.60;99.90;;;;;;5062684;28;20199;-77
2020/12/30 10:16:35;;;;;;;3.83;1.83;;;4.50;99.90;;;;;;5063158;28;20201;-77
2020/12/30 10:19:06;;;;;;;2.67;1.63;;;4.50;99.90;;;;;;5062940;28;20191;-77
2020/12/30 10:21:33;;;;;;;3.73;2.10;;;4.50;99.90;;;;;;5062646;28;20246;-77
2020/12/30 10:24:00;;;;;;;3.07;1.50;;;4.40;99.90;;;;;;5062855;28;20226;-77
2020/12/30 10:26:27;;;;;;;2.50;1.40;;;4.40;99.90;;;;;;5063753;28;20252;-77
2020/12/30 10:28:54;;;;;;;2.53;1.60;;;4.40;99.90;;;;;;5063718;28;20605;-77
2020/12/30 10:31:21;;;;;;;3.90;1.87;;;4.40;99.90;;;;;;5062362;28;20236;-77
2020/12/30 10:33:49;;;;;;;2.87;1.53;;;4.40;99.90;;;;;;5062619;28;20203;-77
2020/12/30 10:36:17;;;;;;;2.60;1.53;;;4.40;99.90;;;;;;5063336;28;20210;-77
2020/12/30 10:38:45;;;;;;;3.37;1.70;;;4.40;99.90;;;;;;5062831;28;20222;-76
2020/12/30 10:41:16;;;;;;;3.60;1.50;;;4.30;99.90;;;;;;5061965;28;20223;-76
2020/12/30 10:43:44;;;;;;;3.77;1.50;;;4.30;99.90;;;;;;5049047;28;20258;-77
2020/12/30 10:46:15;;;;;;;1.80;1.20;;;4.30;99.90;;;;;;5049310;28;20199;-76
2020/12/30 10:48:47;;;;;;;2.40;1.60;;;4.30;99.90;;;;;;5049439;28;20207;-77
2020/12/30 10:51:18;;;;;;;2.53;1.30;;;4.30;99.90;;;;;;5048825;28;20207;-77
2020/12/30 10:53:45;;;;;;;2.53;1.53;;;4.20;99.90;;;;;;5049264;28;20196;-76
2020/12/30 10:56:15;;;;;;;3.30;1.70;;;4.20;99.90;;;;;;5050352;28;20270;-77
2020/12/30 10:58:43;;;;;;;4.97;1.70;;;4.20;99.90;;;;;;5049212;28;20301;-77
2020/12/30 11:01:12;;;;;;;2.80;1.40;;;4.20;99.90;;;;;;5050273;28;20609;-77
2020/12/30 11:03:40;;;;;;;2.17;1.70;;;4.30;99.90;;;;;;5048499;28;20213;-77
2020/12/30 11:06:08;;;;;;;2.83;1.50;;;4.30;99.90;;;;;;5048251;28;20234;-77
2020/12/30 11:08:35;;;;;;;2.57;1.40;;;4.30;99.90;;;;;;5049861;28;20197;-77
2020/12/30 11:11:04;;;;;;;2.23;1.50;;;4.30;99.90;;;;;;5048335;28;20224;-77
2020/12/30 11:13:32;;;;;;;2.23;1.23;;;4.30;99.90;;;;;;5048455;28;20191;-76
2020/12/30 11:15:59;;;;;;;2.00;1.57;;;4.40;99.90;;;;;;5049616;28;20267;-77
2020/12/30 11:18:25;;;;;;;1.83;1.13;;;4.30;99.90;;;;;;5049984;28;20207;-77
2020/12/30 11:20:52;;;;;;;1.90;1.30;;;4.40;99.90;;;;;;5049253;28;20211;-77
2020/12/30 11:23:19;;;;;;;2.57;1.40;;;4.40;99.90;;;;;;5047621;28;20696;-77
2020/12/30 11:25:46;;;;;;;1.87;1.13;;;4.40;99.90;;;;;;5049441;28;20215;-77
2020/12/30 11:28:13;;;;;;;4.60;1.70;;;4.40;99.90;;;;;;5049459;28;20730;-76
2020/12/30 11:30:41;;;;;;;2.90;1.40;;;4.40;99.90;;;;;;5047951;28;20235;-76
2020/12/30 11:33:09;;;;;;;1.60;1.13;;;4.40;99.90;;;;;;5048509;28;20238;-77
2020/12/30 11:35:35;;;;;;;2.53;1.50;;;4.50;99.90;;;;;;5048218;28;20460;-77
2020/12/30 11:38:02;;;;;;;1.97;1.20;;;4.40;99.90;;;;;;5048881;28;20226;-77
2020/12/30 11:40:29;;;;;;;2.77;1.20;;;4.40;99.90;;;;;;5048175;28;20282;-77
2020/12/30 11:42:57;;;;;;;3.37;1.23;;;4.40;99.90;;;;;;5047805;28;20200;-77
2020/12/30 11:45:23;;;;;;;1.80;1.20;;;4.40;99.90;;;;;;5047590;28;20202;-77
2020/12/30 11:47:51;;;;;;;1.53;1.10;;;4.40;99.90;;;;;;5049324;28;20203;-77
2020/12/30 11:50:18;;;;;;;2.37;1.23;;;4.40;99.90;;;;;;5047556;28;20247;-77
2020/12/30 11:52:46;;;;;;;3.10;1.50;;;4.40;99.90;;;;;;5047334;28;20208;-77
2020/12/30 11:55:13;;;;;;;3.30;1.57;;;4.40;99.90;;;;;;5048426;28;20231;-77
2020/12/30 11:57:40;;;;;;;1.97;1.20;;;4.30;99.90;;;;;;5048891;28;20203;-77
2020/12/30 12:00:10;;;;;;;2.23;1.30;;;4.30;99.90;;;;;;5047675;28;20607;-77
2020/12/30 12:02:37;;;;;;;2.10;1.30;;;4.30;99.90;;;;;;5047351;28;20211;-77
2020/12/30 12:05:04;;;;;;;2.23;1.07;;;4.30;99.90;;;;;;5046999;28;20722;-77
2020/12/30 12:07:31;;;;;;;2.40;1.30;;;4.20;99.90;;;;;;5048336;28;20294;-77
2020/12/30 12:09:58;;;;;;;1.90;1.57;;;4.20;99.90;;;;;;5047497;28;20209;-77
2020/12/30 12:12:26;;;;;;;3.93;1.67;;;4.20;99.90;;;;;;5047262;28;20687;-77
2020/12/30 12:14:53;;;;;;;1.03;0.90;;;4.20;99.90;;;;;;5047322;28;20257;-77
2020/12/30 12:17:20;;;;;;;3.13;1.20;;;4.20;99.90;;;;;;5047145;28;20200;-77
2020/12/30 12:19:48;;;;;;;3.40;1.30;;;4.10;99.90;;;;;;5046994;28;20203;-77
2020/12/30 12:22:16;;;;;;;2.10;0.90;;;4.10;99.90;;;;;;5047160;28;20200;-77
2020/12/30 12:24:43;;;;;;;2.60;1.30;;;4.10;99.90;;;;;;5046623;28;20808;-77
2020/12/30 12:27:10;;;;;;;2.40;1.20;;;4.10;99.90;;;;;;5046598;28;20568;-77
2020/12/30 12:29:47;;;;;;;1.43;1.00;;;4.10;99.90;;;;;;5047235;28;20291;-78
2020/12/30 12:32:15;;;;;;;1.87;0.90;;;4.10;99.90;;;;;;5047256;28;20237;-77
2020/12/30 12:34:45;;;;;;;2.17;1.27;;;4.20;99.90;;;;;;5046655;28;20269;-77
2020/12/30 12:37:13;;;;;;;2.00;1.00;;;4.20;99.90;;;;;;5034430;28;20200;-77
2020/12/30 12:39:42;;;;;;;1.10;1.00;;;4.20;99.90;;;;;;5026756;28;20244;-77
2020/12/30 12:42:09;;;;;;;2.23;1.10;;;4.20;99.90;;;;;;5027012;28;20208;-77
2020/12/30 12:44:36;;;;;;;2.60;0.93;;;4.20;99.90;;;;;;5026956;28;20599;-77
2020/12/30 12:47:04;;;;;;;2.93;1.00;;;4.20;99.90;;;;;;5028331;28;20206;-77
2020/12/30 12:49:31;;;;;;;2.50;0.90;;;4.20;99.90;;;;;;5026508;28;20222;-77
2020/12/30 12:51:59;;;;;;;1.13;0.83;;;4.30;99.90;;;;;;5026984;28;20639;-77
2020/12/30 12:54:29;;;;;;;1.83;0.93;;;4.30;99.90;;;;;;5026711;28;20235;-77
2020/12/30 12:57:00;;;;;;;1.80;0.90;;;4.30;99.90;;;;;;5026450;28;20200;-77
2020/12/30 12:59:28;;;;;;;2.00;1.10;;;4.40;99.90;;;;;;5027867;28;20232;-78
2020/12/30 13:01:55;;;;;;;1.07;0.87;;;4.60;99.90;;;;;;5026892;28;20741;-77